Time;durP1;ratioP1;P1;durP2;ratioP2;P2;SDS_P1;SDS_P2;PMS_P1;PMS_P2;Temp;Humidity;BMP_temperature;BMP_pressure;BME280_temperature;BME280_humidity;BME280_pressure;Samples;Min_cycle;Max_cycle;Signal;HPM_P1;HPM_P2
2021/12/22 00:04:15;;;;;;;;;;;;;;;-2.65;87.19922;102767.4;;;;-90
2021/12/22 00:09:09;;;;;;;;;;;;;;;-2.65;87.17773;102768.1;;;;-89
2021/12/22 00:14:08;;;;;;;;;;;;;;;-2.66;87.20801;102762.7;;;;-90
2021/12/22 00:19:20;;;;;;;;;;;;;;;-2.66;87.06738;102766.6;;;;-89
2021/12/22 00:24:25;;;;;;;;;;;;;;;-2.69;87.07227;102767.7;;;;-89
2021/12/22 00:26:34;;;;;;;9.5;4.9;;;;;;;;;;;;;-89
2021/12/22 00:29:16;;;;;;;;;;;;;;;-2.69;87.20117;102769.5;;;;-85
2021/12/22 00:34:16;;;;;;;;;;;;;;;-2.7;87.08105;102767;;;;-86
2021/12/22 00:39:08;;;;;;;;;;;;;;;-2.72;87.13086;102774;;;;-85
2021/12/22 00:44:23;;;;;;;;;;;;;;;-2.73;87.15039;102765.5;;;;-89
2021/12/22 00:49:25;;;;;;;;;;;;;;;-2.74;87.19141;102768.7;;;;-88
2021/12/22 00:54:10;;;;;;;;;;;;;;;-2.75;87.19824;102763.1;;;;-88
2021/12/22 00:56:37;;;;;;;12;5.6;;;;;;;;;;;;;-90
2021/12/22 00:59:21;;;;;;;;;;;;;;;-2.75;87.18945;102761;;;;-90
2021/12/22 01:04:08;;;;;;;;;;;;;;;-2.77;87.24805;102767;;;;-90
2021/12/22 01:14:23;;;;;;;;;;;;;;;-2.78;87.32129;102756.8;;;;-90
2021/12/22 01:24:22;;;;;;;;;;;;;;;-2.8;87.33887;102756.6;;;;-88
2021/12/22 01:26:40;;;;;;;12.4;5.6;;;;;;;;;;;;;-89
2021/12/22 01:29:11;;;;;;;;;;;;;;;-2.79;87.43555;102762.1;;;;-89
2021/12/22 01:34:22;;;;;;;;;;;;;;;-2.8;87.28516;102768.2;;;;-89
2021/12/22 01:39:26;;;;;;;;;;;;;;;-2.82;87.33496;102774.7;;;;-88
2021/12/22 01:44:23;;;;;;;;;;;;;;;-2.81;87.27246;102771.5;;;;-89
2021/12/22 01:49:21;;;;;;;;;;;;;;;-2.83;87.34375;102764;;;;-89
2021/12/22 01:54:30;;;;;;;;;;;;;;;-2.84;87.41504;102762;;;;-89
2021/12/22 01:56:30;;;;;;;10;5.1;;;;;;;;;;;;;-90
2021/12/22 01:59:20;;;;;;;;;;;;;;;-2.85;87.51172;102764;;;;-90
2021/12/22 02:04:14;;;;;;;;;;;;;;;-2.83;87.58984;102764;;;;-90
2021/12/22 02:09:12;;;;;;;;;;;;;;;-2.84;87.4043;102768.1;;;;-88
2021/12/22 02:14:08;;;;;;;;;;;;;;;-2.85;87.30859;102778.5;;;;-90
2021/12/22 02:26:46;;;;;;;13;5.9;;;;;;;;;;;;;-90
2021/12/22 02:28:12;;;;;;;;;;;;;;;-2.87;87.31348;102777.3;;;;-88
2021/12/22 02:35:01;;;;;;;;;;;;;;;-2.89;87.15918;102774.9;;;;-89
2021/12/22 02:40:00;;;;;;;;;;;;;;;-2.92;87.1543;102771.9;;;;-89
2021/12/22 02:44:57;;;;;;;;;;;;;;;-2.93;87.04492;102765.3;;;;-89
2021/12/22 02:50:07;;;;;;;;;;;;;;;-2.97;86.99316;102759;;;;-88
2021/12/22 02:55:06;;;;;;;;;;;;;;;-2.98;86.99316;102766.5;;;;-89
2021/12/22 02:56:37;;;;;;;11.9;5.7;;;;;;;;;;;;;-89
2021/12/22 03:00:22;;;;;;;;;;;;;;;-3;86.97656;102765.5;;;;-89
2021/12/22 03:05:03;;;;;;;;;;;;;;;-3.02;86.90918;102761.3;;;;-90
2021/12/22 03:10:01;;;;;;;;;;;;;;;-3.05;86.9248;102762.8;;;;-89
2021/12/22 03:15:01;;;;;;;;;;;;;;;-3.06;86.99805;102754.9;;;;-88
2021/12/22 03:19:55;;;;;;;;;;;;;;;-3.05;87.16016;102755.6;;;;-89
2021/12/22 03:24:55;;;;;;;;;;;;;;;-3.05;87.10645;102748.5;;;;-89
2021/12/22 03:26:20;;;;;;;11.6;5.7;;;;;;;;;;;;;-89
2021/12/22 03:30:04;;;;;;;;;;;;;;;-3.05;87.28809;102743.8;;;;-89
2021/12/22 03:35:15;;;;;;;;;;;;;;;-3.05;87.29883;102745.2;;;;-89
2021/12/22 03:39:55;;;;;;;;;;;;;;;-3.04;87.34375;102736.5;;;;-89
2021/12/22 03:44:57;;;;;;;;;;;;;;;-3.03;87.44141;102732.2;;;;-89
2021/12/22 03:50:11;;;;;;;;;;;;;;;-3.02;87.42188;102717.2;;;;-88
2021/12/22 03:54:58;;;;;;;;;;;;;;;-3;87.49023;102721.6;;;;-88
2021/12/22 03:56:19;;;;;;;11.1;5.3;;;;;;;;;;;;;-88
2021/12/22 03:59:58;;;;;;;;;;;;;;;-3;87.42578;102725;;;;-88
2021/12/22 04:04:56;;;;;;;;;;;;;;;-3;87.47949;102728.8;;;;-85
2021/12/22 04:10:19;;;;;;;;;;;;;;;-2.97;87.48535;102725.2;;;;-86
2021/12/22 04:14:59;;;;;;;;;;;;;;;-2.99;87.50293;102726.2;;;;-85
2021/12/22 04:19:57;;;;;;;;;;;;;;;-2.99;87.50293;102726;;;;-89
2021/12/22 04:24:58;;;;;;;;;;;;;;;-2.99;87.58789;102717.1;;;;-90
2021/12/22 04:26:18;;;;;;;12.5;5.2;;;;;;;;;;;;;-90
2021/12/22 04:29:57;;;;;;;;;;;;;;;-3;87.62891;102712;;;;-89
2021/12/22 04:35:07;;;;;;;;;;;;;;;-2.98;87.55859;102702.2;;;;-88
2021/12/22 04:39:56;;;;;;;;;;;;;;;-3;87.59766;102696.1;;;;-88
2021/12/22 04:44:57;;;;;;;;;;;;;;;-2.99;87.59863;102692.1;;;;-90
2021/12/22 04:50:14;;;;;;;;;;;;;;;-2.99;87.69531;102696.9;;;;-89
2021/12/22 04:55:03;;;;;;;;;;;;;;;-2.98;87.51563;102702.9;;;;-88
2021/12/22 04:56:14;;;;;;;12.6;5.1;;;;;;;;;;;;;-88
2021/12/22 05:00:05;;;;;;;;;;;;;;;-3;87.47949;102695.3;;;;-88
2021/12/22 05:05:01;;;;;;;;;;;;;;;-3.01;87.4668;102691.2;;;;-88
2021/12/22 05:09:56;;;;;;;;;;;;;;;-3.03;87.39063;102678.5;;;;-89
2021/12/22 05:15:00;;;;;;;;;;;;;;;-3.04;87.38672;102676.9;;;;-88
2021/12/22 05:20:01;;;;;;;;;;;;;;;-3.06;87.44727;102677.6;;;;-88
2021/12/22 05:25:04;;;;;;;;;;;;;;;-3.07;87.35742;102675.7;;;;-87
2021/12/22 05:26:14;;;;;;;13.6;5.2;;;;;;;;;;;;;-88
2021/12/22 05:29:57;;;;;;;;;;;;;;;-3.09;87.44141;102675.6;;;;-88
2021/12/22 05:35:06;;;;;;;;;;;;;;;-3.08;87.49512;102681.7;;;;-88
2021/12/22 05:39:56;;;;;;;;;;;;;;;-3.08;87.45215;102681;;;;-88
2021/12/22 05:44:57;;;;;;;;;;;;;;;-3.08;87.50781;102682;;;;-89
2021/12/22 05:49:55;;;;;;;;;;;;;;;-3.09;87.57813;102675.5;;;;-89
2021/12/22 05:54:58;;;;;;;;;;;;;;;-3.1;87.48047;102660.2;;;;-88
2021/12/22 05:56:27;;;;;;;11.6;5.3;;;;;;;;;;;;;-88
2021/12/22 05:59:55;;;;;;;;;;;;;;;-3.1;87.57617;102663.3;;;;-88
2021/12/22 06:04:55;;;;;;;;;;;;;;;-3.11;87.58496;102669.5;;;;-89
2021/12/22 06:09:58;;;;;;;;;;;;;;;-3.13;87.44238;102672.5;;;;-90
2021/12/22 06:14:55;;;;;;;;;;;;;;;-3.16;87.45801;102673.4;;;;-87
2021/12/22 06:19:56;;;;;;;;;;;;;;;-3.18;87.48438;102670.9;;;;-85
2021/12/22 06:25:01;;;;;;;;;;;;;;;-3.19;87.42969;102666.1;;;;-89
2021/12/22 06:26:08;;;;;;;14.3;5.5;;;;;;;;;;;;;-89
2021/12/22 06:30:00;;;;;;;;;;;;;;;-3.21;87.38086;102661;;;;-88
2021/12/22 06:34:56;;;;;;;;;;;;;;;-3.23;87.40918;102661;;;;-89
2021/12/22 06:39:55;;;;;;;;;;;;;;;-3.25;87.48047;102652.9;;;;-87
2021/12/22 06:45:14;;;;;;;;;;;;;;;;;;;;;
2021/12/22 06:49:59;;;;;;;;;;;;;;;-3.29;87.44043;102656.3;;;;-88
2021/12/22 06:54:54;;;;;;;;;;;;;;;-3.32;87.37109;102645.3;;;;-86
2021/12/22 06:56:23;;;;;;;;;;;;;;;;;;;;;
2021/12/22 07:00:09;;;;;;;;;;;;;;;-3.34;87.37793;102647.8;;;;-87
2021/12/22 07:04:54;;;;;;;;;;;;;;;-3.36;87.40625;102653.7;;;;-87
2021/12/22 07:10:00;;;;;;;;;;;;;;;-3.38;87.43457;102645.3;;;;-87
2021/12/22 07:14:54;;;;;;;;;;;;;;;-3.39;87.41992;102648.9;;;;-86
2021/12/22 07:19:57;;;;;;;;;;;;;;;-3.41;87.38477;102654.4;;;;-85
2021/12/22 07:24:55;;;;;;;;;;;;;;;-3.41;87.50195;102645.6;;;;-86
2021/12/22 07:26:03;;;;;;;12.4;5.7;;;;;;;;;;;;;-86
2021/12/22 07:29:57;;;;;;;;;;;;;;;-3.42;87.5;102633.9;;;;-87
2021/12/22 07:35:04;;;;;;;;;;;;;;;-3.42;87.56445;102629.3;;;;-87
2021/12/22 07:40:04;;;;;;;;;;;;;;;-3.42;87.5752;102628.1;;;;-87
2021/12/22 07:45:17;;;;;;;;;;;;;;;;;;;;;
2021/12/22 07:50:01;;;;;;;;;;;;;;;-3.42;87.53223;102628.5;;;;-88
2021/12/22 07:55:02;;;;;;;;;;;;;;;-3.42;87.51074;102629.3;;;;-86
2021/12/22 07:56:06;;;;;;;14.4;5.8;;;;;;;;;;;;;-87
2021/12/22 08:00:07;;;;;;;;;;;;;;;-3.43;87.66895;102632.2;;;;-87
2021/12/22 08:05:06;;;;;;;;;;;;;;;-3.43;87.64746;102626.2;;;;-88
2021/12/22 08:10:08;;;;;;;;;;;;;;;-3.42;87.66016;102624.8;;;;-88
2021/12/22 08:14:57;;;;;;;;;;;;;;;-3.41;87.56836;102630.7;;;;-86
2021/12/22 08:20:01;;;;;;;;;;;;;;;-3.42;87.58496;102628.1;;;;-88
2021/12/22 08:25:08;;;;;;;;;;;;;;;-3.41;87.67285;102628.1;;;;-88
2021/12/22 08:26:11;;;;;;;12.9;5.4;;;;;;;;;;;;;-88
2021/12/22 08:29:58;;;;;;;;;;;;;;;-3.39;87.71973;102632.7;;;;-88
2021/12/22 08:35:01;;;;;;;;;;;;;;;-3.37;87.67188;102639.5;;;;-86
2021/12/22 08:40:01;;;;;;;;;;;;;;;-3.32;87.56348;102644;;;;-87
2021/12/22 08:45:02;;;;;;;;;;;;;;;-3.31;87.63965;102625.9;;;;-87
2021/12/22 08:49:55;;;;;;;;;;;;;;;-3.29;87.69922;102633.6;;;;-87
2021/12/22 08:55:03;;;;;;;;;;;;;;;-3.27;87.75488;102633.5;;;;-88
2021/12/22 08:56:00;;;;;;;13;5.5;;;;;;;;;;;;;-88
2021/12/22 09:00:11;;;;;;;;;;;;;;;-3.21;87.78711;102641.5;;;;-89
2021/12/22 09:04:56;;;;;;;;;;;;;;;-3.17;87.71094;102642.3;;;;-87
2021/12/22 09:10:00;;;;;;;;;;;;;;;-3.12;87.7334;102644.2;;;;-88
2021/12/22 09:14:58;;;;;;;;;;;;;;;-3.08;87.72949;102642.3;;;;-85
2021/12/22 09:20:02;;;;;;;;;;;;;;;-3.02;87.75391;102627.4;;;;-86
2021/12/22 09:24:56;;;;;;;;;;;;;;;-2.99;87.93066;102629.6;;;;-87
2021/12/22 09:25:56;;;;;;;14.9;5.7;;;;;;;;;;;;;-85
2021/12/22 09:30:01;;;;;;;;;;;;;;;-2.93;88.02734;102636.4;;;;-86
2021/12/22 09:35:04;;;;;;;;;;;;;;;-2.87;87.99805;102641;;;;-88
2021/12/22 09:39:56;;;;;;;;;;;;;;;-2.8;87.92773;102641.9;;;;-89
2021/12/22 10:21:51;;;;;;;;;;;;;;;-2.24;88.19434;102624.5;;;;-87
2021/12/22 10:29:05;;;;;;;;;;;;;;;-2.15;88.21094;102613.3;;;;-88
2021/12/22 10:33:55;;;;;;;;;;;;;;;-2.04;88.26563;102610.1;;;;-87
2021/12/22 10:55:29;;;;;;;;;;;;;;;-1.74;88.19922;102594.4;;;;-88
2021/12/22 10:55:50;;;;;;;16.3;6.8;;;;;;;;;;;;;-88
2021/12/22 11:00:38;;;;;;;;;;;;;;;-1.65;88.17578;102586.3;;;;-88
2021/12/22 11:05:46;;;;;;;;;;;;;;;-1.61;88.17188;102576.7;;;;-88
2021/12/22 11:10:52;;;;;;;;;;;;;;;-1.58;88.24414;102576.7;;;;-83
2021/12/22 11:15:35;;;;;;;;;;;;;;;-1.51;88.27148;102572;;;;-86
2021/12/22 11:20:37;;;;;;;;;;;;;;;-1.43;88.30859;102566.6;;;;-85
2021/12/22 11:25:43;;;;;;;;;;;;;;;-1.36;88.32227;102555.6;;;;-85
2021/12/22 11:25:57;;;;;;;17.6;7.5;;;;;;;;;;;;;-85
2021/12/22 11:30:32;;;;;;;;;;;;;;;-1.28;88.37109;102556.8;;;;-85
2021/12/22 11:35:39;;;;;;;;;;;;;;;-1.23;88.43652;102546.8;;;;-86
2021/12/22 11:40:35;;;;;;;;;;;;;;;-1.19;88.43262;102541.6;;;;-86
2021/12/22 11:45:37;;;;;;;;;;;;;;;-1.16;88.51367;102537.2;;;;-87
2021/12/22 11:50:35;;;;;;;;;;;;;;;-1.1;88.54688;102529.6;;;;-86
2021/12/22 11:55:43;;;;;;;;;;;;;;;-1.04;88.58301;102523.9;;;;-86
2021/12/22 11:56:02;;;;;;;20.1;8.4;;;;;;;;;;;;;-86
2021/12/22 12:10:01;;;;;;;;;;;;;;;-0.89;88.3877;102506.3;;;;-88
2021/12/22 12:15:10;;;;;;;;;;;;;;;-0.82;88.25195;102502.3;;;;-89
2021/12/22 12:26:50;;;;;;;;;;;;;;;-0.73;88.11914;102492.9;;;;-85
2021/12/22 12:30:52;;;;;;;;;;;;;;;-0.71;88.03809;102494.6;;;;-84
2021/12/22 12:35:53;;;;;;;;;;;;;;;-0.7;88.15625;102476.8;;;;-85
2021/12/22 12:40:54;;;;;;;;;;;;;;;-0.7;88.17773;102471.8;;;;-84
2021/12/22 12:45:50;;;;;;;;;;;;;;;-0.7;88.25391;102466.3;;;;-85
2021/12/22 12:50:43;;;;;;;;;;;;;;;-0.71;88.26367;102463.2;;;;-85
2021/12/22 12:55:43;;;;;;;21.3;8.8;;;;;;;;;;;;;-86
2021/12/22 12:56:09;;;;;;;;;;;;;;;-0.73;88.28027;102449;;;;-89
2021/12/22 13:00:54;;;;;;;;;;;;;;;-0.71;88.3291;102442.8;;;;-87
2021/12/22 13:06:04;;;;;;;;;;;;;;;-0.71;88.38281;102436;;;;-88
2021/12/22 13:11:01;;;;;;;;;;;;;;;-0.7;88.38379;102428;;;;-88
2021/12/22 13:15:53;;;;;;;;;;;;;;;-0.69;88.45996;102416;;;;-88
2021/12/22 13:25:57;;;;;;;20.4;9.4;;;;;;;;;;;;;-88
2021/12/22 13:36:42;;;;;;;;;;;;;;;-0.61;88.62891;102398.3;;;;-87
2021/12/22 13:41:50;;;;;;;;;;;;;;;-0.59;88.70801;102387.1;;;;-87
2021/12/22 13:46:38;;;;;;;;;;;;;;;-0.59;88.76367;102370.5;;;;-88
2021/12/22 13:51:43;;;;;;;;;;;;;;;-0.58;88.83887;102372.4;;;;-86
2021/12/22 13:55:50;;;;;;;23.3;10;;;;;;;;;;;;;-88
2021/12/22 13:56:55;;;;;;;;;;;;;;;-0.59;88.94629;102367.9;;;;-89
2021/12/22 14:05:01;;;;;;;;;;;;;;;-0.61;88.99414;102357.2;;;;-88
2021/12/22 14:10:00;;;;;;;;;;;;;;;-0.63;89.06445;102350.2;;;;-87
2021/12/22 14:15:01;;;;;;;;;;;;;;;-0.64;89.06445;102343.4;;;;-89
2021/12/22 14:20:10;;;;;;;;;;;;;;;-0.66;89.09277;102336.4;;;;-87
2021/12/22 14:25:13;;;;;;;;;;;;;;;-0.68;89.11914;102333.4;;;;-87
2021/12/22 14:30:19;;;;;;;;;;;;;;;;;;;;;
2021/12/22 14:40:16;;;;;;;;;;;;;;;;;;;;;
2021/12/22 14:44:59;;;;;;;;;;;;;;;-0.77;89.25098;102327.4;;;;-87
2021/12/22 14:54:14;;;;;;;;;;;;;;;-0.82;89.35742;102317.8;;;;-89
2021/12/22 15:10:27;;;;;;;;;;;;;;;-0.94;89.48242;102323.2;;;;-84
2021/12/22 15:15:33;;;;;;;;;;;;;;;-0.98;89.5293;102329.4;;;;-86
2021/12/22 15:23:08;;;;;;;;;;;;;;;;;;;;;
2021/12/22 15:26:00;;;;;;;17.4;8.6;;;;;;;;;;;;;-88
2021/12/22 15:28:09;;;;;;;;;;;;;;;-1.08;89.62598;102307.2;;;;-88
2021/12/22 15:39:05;;;;;;;;;;;;;;;-1.15;89.65332;102302;;;;-88
2021/12/22 15:44:04;;;;;;;;;;;;;;;-1.17;89.66016;102299.4;;;;-86
2021/12/22 15:48:55;;;;;;;;;;;;;;;-1.19;89.70996;102296.5;;;;-88
2021/12/22 15:54:06;;;;;;;;;;;;;;;-1.21;89.63184;102289.1;;;;-87
2021/12/22 15:55:36;;;;;;;17.7;8;;;;;;;;;;;;;-87
2021/12/22 15:59:05;;;;;;;;;;;;;;;-1.24;89.62402;102288.2;;;;-86
2021/12/22 16:04:01;;;;;;;;;;;;;;;-1.26;89.6543;102296;;;;-87
2021/12/22 16:11:47;;;;;;;;;;;;;;;-1.3;89.56738;102289.4;;;;-87
2021/12/22 16:16:38;;;;;;;;;;;;;;;-1.35;89.56836;102283.9;;;;-87
2021/12/22 16:25:42;;;;;;;15.5;6.8;;;;;;;;;;;;;-85
2021/12/22 16:26:44;;;;;;;;;;;;;;;-1.42;89.52344;102276.1;;;;-87
2021/12/22 16:31:43;;;;;;;;;;;;;;;-1.45;89.4834;102266.1;;;;-88
2021/12/22 16:46:04;;;;;;;;;;;;;;;-1.52;89.34082;102252.6;;;;-86
2021/12/22 16:55:48;;;;;;;15.8;6.5;;;;;;;;;;;;;-88
2021/12/22 17:12:55;;;;;;;;;;;;;;;-1.65;89.29102;102230.7;;;;-88
2021/12/22 17:34:50;;;;;;;;;;;;;;;-1.74;89.31445;102213.4;;;;-86
2021/12/22 18:16:35;;;;;;;;;;;;;;;-1.96;89.06738;102134;;;;-89
2021/12/22 19:06:56;;;;;;;;;;;;;;;-1.95;89.6582;102106.7;;;;-87
2021/12/22 19:25:34;;;;;;;17.1;6.9;;;;;;;;;;;;;-89
2021/12/22 19:42:48;;;;;;;;;;;;;;;-1.81;90.00879;102084.9;;;;-89
2021/12/22 19:47:35;;;;;;;;;;;;;;;-1.78;90.01465;102102.7;;;;-88
2021/12/22 19:55:00;;;;;;;;;;;;;;;-1.76;89.97754;102080.9;;;;-89
2021/12/22 19:59:44;;;;;;;;;;;;;;;-1.74;90.01172;102086.8;;;;-89
2021/12/22 20:09:59;;;;;;;;;;;;;;;-1.71;90.07324;102066.6;;;;-88
2021/12/22 20:14:49;;;;;;;;;;;;;;;-1.69;90.14063;102049.8;;;;-87
2021/12/22 20:19:49;;;;;;;;;;;;;;;-1.67;90.15332;102048.9;;;;-88
2021/12/22 20:24:54;;;;;;;;;;;;;;;-1.66;90.20215;102045.3;;;;-87
2021/12/22 20:30:01;;;;;;;;;;;;;;;-1.64;90.2041;102029.5;;;;-88
2021/12/22 20:35:01;;;;;;;;;;;;;;;-1.61;90.1582;102023.8;;;;-87
2021/12/22 20:43:24;;;;;;;;;;;;;;;-1.58;90.1748;101994.1;;;;-86
2021/12/22 20:55:40;;;;;;;18.8;7.5;;;;;;;;;;;;;-86
2021/12/22 20:58:32;;;;;;;;;;;;;;;-1.51;90.15625;101984;;;;-88
2021/12/22 21:16:45;;;;;;;;;;;;;;;;;;;;;
2021/12/22 21:30:50;;;;;;;;;;;;;;;-1.4;90.24512;101955.6;;;;-87
2021/12/22 21:35:54;;;;;;;;;;;;;;;-1.38;90.2168;101949.6;;;;-87
2021/12/22 21:40:46;;;;;;;;;;;;;;;-1.37;90.23145;101936.1;;;;-87
2021/12/22 21:45:48;;;;;;;;;;;;;;;-1.35;90.27637;101924.6;;;;-87
2021/12/22 21:50:45;;;;;;;;;;;;;;;-1.32;90.33594;101918.2;;;;-87
2021/12/22 22:00:01;;;;;;;;;;;;;;;-1.28;90.35645;101905.6;;;;-88
2021/12/22 22:10:27;;;;;;;;;;;;;;;-1.23;90.40918;101882.5;;;;-86
2021/12/22 22:15:07;;;;;;;;;;;;;;;-1.22;90.44531;101886.2;;;;-88
2021/12/22 22:20:11;;;;;;;;;;;;;;;-1.21;90.41504;101882.9;;;;-86
2021/12/22 22:25:17;;;;;;;;;;;;;;;-1.18;90.33496;101869.2;;;;-86
2021/12/22 22:25:52;;;;;;;15.2;7.4;;;;;;;;;;;;;-86
2021/12/22 22:43:39;;;;;;;;;;;;;;;-1.15;90.30859;101860.3;;;;-89
2021/12/22 22:48:54;;;;;;;;;;;;;;;-1.14;90.34277;101840.4;;;;-89
2021/12/22 22:53:44;;;;;;;;;;;;;;;-1.13;90.3125;101834.5;;;;-89
2021/12/22 22:55:10;;;;;;;19.1;7.5;;;;;;;;;;;;;-89
2021/12/22 22:58:45;;;;;;;;;;;;;;;-1.14;90.33398;101830.5;;;;-89
2021/12/22 23:03:48;;;;;;;;;;;;;;;-1.13;90.37695;101834.7;;;;-87
2021/12/22 23:08:43;;;;;;;;;;;;;;;-1.12;90.35742;101836.1;;;;-89
2021/12/22 23:14:04;;;;;;;;;;;;;;;-1.11;90.33984;101814.3;;;;-88
2021/12/22 23:18:51;;;;;;;;;;;;;;;-1.12;90.38086;101796;;;;-87
2021/12/22 23:25:10;;;;;;;19;7.1;;;;;;;;;;;;;-87
2021/12/22 23:29:20;;;;;;;;;;;;;;;-1.11;90.41504;101794;;;;-88
2021/12/22 23:34:12;;;;;;;;;;;;;;;-1.12;90.35938;101795.2;;;;-89
2021/12/22 23:39:01;;;;;;;;;;;;;;;-1.12;90.31445;101788.5;;;;-86
2021/12/22 23:53:18;;;;;;;;;;;;;;;-1.15;90.28711;101739.8;;;;-88
2021/12/22 23:55:16;;;;;;;17.3;7.2;;;;;;;;;;;;;-88
2021/12/22 23:58:27;;;;;;;;;;;;;;;-1.16;90.2207;101723.9;;;;-88
